sensor_id;sensor_type;location;lat;lon;timestamp;temperature;humidity
10010;DHT22;5044;48.652;9.250;2023-07-08T00:00:12;21.70;49.60
10010;DHT22;5044;48.652;9.250;2023-07-08T00:02:40;21.70;49.80
10010;DHT22;5044;48.652;9.250;2023-07-08T00:05:08;21.70;49.80
10010;DHT22;5044;48.652;9.250;2023-07-08T00:07:37;21.50;49.60
10010;DHT22;5044;48.652;9.250;2023-07-08T00:10:14;21.50;49.60
10010;DHT22;5044;48.652;9.250;2023-07-08T00:12:42;21.40;50.00
10010;DHT22;5044;48.652;9.250;2023-07-08T00:15:10;21.40;50.40
10010;DHT22;5044;48.652;9.250;2023-07-08T00:17:37;21.40;50.40
10010;DHT22;5044;48.652;9.250;2023-07-08T00:20:11;21.40;51.20
10010;DHT22;5044;48.652;9.250;2023-07-08T00:22:41;21.30;50.70
10010;DHT22;5044;48.652;9.250;2023-07-08T00:25:08;21.20;50.50
10010;DHT22;5044;48.652;9.250;2023-07-08T00:27:35;21.10;50.30
10010;DHT22;5044;48.652;9.250;2023-07-08T00:30:10;21.10;50.50
10010;DHT22;5044;48.652;9.250;2023-07-08T00:32:42;21.20;50.70
10010;DHT22;5044;48.652;9.250;2023-07-08T00:35:09;21.10;50.60
10010;DHT22;5044;48.652;9.250;2023-07-08T00:37:36;21.10;51.10
10010;DHT22;5044;48.652;9.250;2023-07-08T00:40:13;21.00;51.20
10010;DHT22;5044;48.652;9.250;2023-07-08T00:42:42;21.00;52.00
10010;DHT22;5044;48.652;9.250;2023-07-08T00:45:18;21.00;52.20
10010;DHT22;5044;48.652;9.250;2023-07-08T00:47:49;20.90;52.80
10010;DHT22;5044;48.652;9.250;2023-07-08T00:50:16;20.90;53.50
10010;DHT22;5044;48.652;9.250;2023-07-08T00:52:44;20.70;53.10
10010;DHT22;5044;48.652;9.250;2023-07-08T00:55:13;20.70;53.80
10010;DHT22;5044;48.652;9.250;2023-07-08T00:57:43;20.60;53.60
10010;DHT22;5044;48.652;9.250;2023-07-08T01:00:13;20.50;55.40
10010;DHT22;5044;48.652;9.250;2023-07-08T01:02:45;20.50;55.40
10010;DHT22;5044;48.652;9.250;2023-07-08T01:05:15;20.30;57.90
10010;DHT22;5044;48.652;9.250;2023-07-08T01:07:47;20.30;57.50
10010;DHT22;5044;48.652;9.250;2023-07-08T01:10:22;20.30;57.80
10010;DHT22;5044;48.652;9.250;2023-07-08T01:12:53;20.10;58.30
10010;DHT22;5044;48.652;9.250;2023-07-08T01:15:23;20.10;58.00
10010;DHT22;5044;48.652;9.250;2023-07-08T01:17:51;20.00;58.60
10010;DHT22;5044;48.652;9.250;2023-07-08T01:20:19;20.20;58.40
10010;DHT22;5044;48.652;9.250;2023-07-08T01:22:47;20.20;57.80
10010;DHT22;5044;48.652;9.250;2023-07-08T01:25:14;20.10;58.10
10010;DHT22;5044;48.652;9.250;2023-07-08T01:27:43;20.00;58.20
10010;DHT22;5044;48.652;9.250;2023-07-08T01:30:11;20.00;57.30
10010;DHT22;5044;48.652;9.250;2023-07-08T01:32:44;19.90;57.40
10010;DHT22;5044;48.652;9.250;2023-07-08T01:35:13;20.00;56.70
10010;DHT22;5044;48.652;9.250;2023-07-08T01:37:43;19.90;56.10
10010;DHT22;5044;48.652;9.250;2023-07-08T01:40:19;19.90;56.20
10010;DHT22;5044;48.652;9.250;2023-07-08T01:42:49;19.80;58.00
10010;DHT22;5044;48.652;9.250;2023-07-08T01:45:18;19.80;59.30
10010;DHT22;5044;48.652;9.250;2023-07-08T01:47:48;19.90;60.10
10010;DHT22;5044;48.652;9.250;2023-07-08T01:50:16;19.80;60.20
10010;DHT22;5044;48.652;9.250;2023-07-08T01:52:44;19.80;62.10
10010;DHT22;5044;48.652;9.250;2023-07-08T01:55:12;19.70;60.90
10010;DHT22;5044;48.652;9.250;2023-07-08T01:57:40;19.80;60.40
10010;DHT22;5044;48.652;9.250;2023-07-08T02:00:08;19.70;58.90
10010;DHT22;5044;48.652;9.250;2023-07-08T02:02:35;19.80;59.50
10010;DHT22;5044;48.652;9.250;2023-07-08T02:05:02;19.80;58.60
10010;DHT22;5044;48.652;9.250;2023-07-08T02:07:28;19.80;58.70
10010;DHT22;5044;48.652;9.250;2023-07-08T02:09:55;19.50;58.50
10010;DHT22;5044;48.652;9.250;2023-07-08T02:12:22;19.60;58.10
10010;DHT22;5044;48.652;9.250;2023-07-08T02:14:50;19.60;59.70
10010;DHT22;5044;48.652;9.250;2023-07-08T02:17:17;19.60;62.10
10010;DHT22;5044;48.652;9.250;2023-07-08T02:19:44;19.70;61.40
10010;DHT22;5044;48.652;9.250;2023-07-08T02:22:11;19.50;58.60
10010;DHT22;5044;48.652;9.250;2023-07-08T02:24:38;19.60;58.60
10010;DHT22;5044;48.652;9.250;2023-07-08T02:27:05;19.60;58.00
10010;DHT22;5044;48.652;9.250;2023-07-08T02:29:31;19.50;56.90
10010;DHT22;5044;48.652;9.250;2023-07-08T02:32:00;19.50;56.00
10010;DHT22;5044;48.652;9.250;2023-07-08T02:34:26;19.40;57.10
10010;DHT22;5044;48.652;9.250;2023-07-08T02:36:53;19.40;59.40
10010;DHT22;5044;48.652;9.250;2023-07-08T02:39:21;19.40;58.10
10010;DHT22;5044;48.652;9.250;2023-07-08T02:41:48;19.30;58.50
10010;DHT22;5044;48.652;9.250;2023-07-08T02:44:15;19.30;60.00
10010;DHT22;5044;48.652;9.250;2023-07-08T02:46:42;19.30;61.70
10010;DHT22;5044;48.652;9.250;2023-07-08T02:49:10;19.40;60.60
10010;DHT22;5044;48.652;9.250;2023-07-08T02:51:37;19.40;58.50
10010;DHT22;5044;48.652;9.250;2023-07-08T02:54:04;19.40;56.70
10010;DHT22;5044;48.652;9.250;2023-07-08T02:56:31;19.40;55.70
10010;DHT22;5044;48.652;9.250;2023-07-08T02:58:58;19.40;55.20
10010;DHT22;5044;48.652;9.250;2023-07-08T03:01:25;19.40;55.40
10010;DHT22;5044;48.652;9.250;2023-07-08T03:03:55;19.50;55.40
10010;DHT22;5044;48.652;9.250;2023-07-08T03:06:25;19.40;55.50
10010;DHT22;5044;48.652;9.250;2023-07-08T03:08:52;19.40;55.70
10010;DHT22;5044;48.652;9.250;2023-07-08T03:11:19;19.50;55.60
10010;DHT22;5044;48.652;9.250;2023-07-08T03:13:45;19.50;55.80
10010;DHT22;5044;48.652;9.250;2023-07-08T03:16:12;19.50;55.40
10010;DHT22;5044;48.652;9.250;2023-07-08T03:18:40;19.50;56.20
10010;DHT22;5044;48.652;9.250;2023-07-08T03:21:13;19.40;57.40
10010;DHT22;5044;48.652;9.250;2023-07-08T03:23:41;19.40;57.60
10010;DHT22;5044;48.652;9.250;2023-07-08T03:26:13;19.40;56.90
10010;DHT22;5044;48.652;9.250;2023-07-08T03:28:40;19.40;57.20
10010;DHT22;5044;48.652;9.250;2023-07-08T03:31:09;19.40;56.10
10010;DHT22;5044;48.652;9.250;2023-07-08T03:33:36;19.40;55.90
10010;DHT22;5044;48.652;9.250;2023-07-08T03:36:07;19.30;55.00
10010;DHT22;5044;48.652;9.250;2023-07-08T03:38:36;19.40;55.40
10010;DHT22;5044;48.652;9.250;2023-07-08T03:41:05;19.40;54.90
10010;DHT22;5044;48.652;9.250;2023-07-08T03:43:32;19.40;55.10
10010;DHT22;5044;48.652;9.250;2023-07-08T03:45:59;19.40;54.90
10010;DHT22;5044;48.652;9.250;2023-07-08T03:48:25;19.40;54.60
10010;DHT22;5044;48.652;9.250;2023-07-08T03:50:52;19.40;54.70
10010;DHT22;5044;48.652;9.250;2023-07-08T03:53:19;19.40;54.40
10010;DHT22;5044;48.652;9.250;2023-07-08T03:55:46;19.40;55.20
10010;DHT22;5044;48.652;9.250;2023-07-08T03:58:14;19.40;55.00
10010;DHT22;5044;48.652;9.250;2023-07-08T04:00:41;19.30;55.60
10010;DHT22;5044;48.652;9.250;2023-07-08T04:03:10;19.30;55.40
10010;DHT22;5044;48.652;9.250;2023-07-08T04:05:38;19.30;55.50
10010;DHT22;5044;48.652;9.250;2023-07-08T04:08:05;19.30;58.40
10010;DHT22;5044;48.652;9.250;2023-07-08T04:10:32;19.30;58.00
10010;DHT22;5044;48.652;9.250;2023-07-08T04:12:59;19.30;63.20
10010;DHT22;5044;48.652;9.250;2023-07-08T04:15:27;19.30;60.50
10010;DHT22;5044;48.652;9.250;2023-07-08T04:17:54;19.30;66.40
10010;DHT22;5044;48.652;9.250;2023-07-08T04:20:23;19.30;69.20
10010;DHT22;5044;48.652;9.250;2023-07-08T04:22:50;19.20;69.10
10010;DHT22;5044;48.652;9.250;2023-07-08T04:25:18;19.40;68.30
10010;DHT22;5044;48.652;9.250;2023-07-08T04:27:45;19.50;67.50
10010;DHT22;5044;48.652;9.250;2023-07-08T04:30:20;19.50;60.80
10010;DHT22;5044;48.652;9.250;2023-07-08T04:32:52;19.40;57.90
10010;DHT22;5044;48.652;9.250;2023-07-08T04:35:19;19.50;61.00
10010;DHT22;5044;48.652;9.250;2023-07-08T04:37:45;19.60;61.40
10010;DHT22;5044;48.652;9.250;2023-07-08T04:40:16;19.60;57.10
10010;DHT22;5044;48.652;9.250;2023-07-08T04:42:44;19.70;61.10
10010;DHT22;5044;48.652;9.250;2023-07-08T04:45:14;19.70;58.60
10010;DHT22;5044;48.652;9.250;2023-07-08T04:47:41;19.80;58.50
10010;DHT22;5044;48.652;9.250;2023-07-08T04:50:10;19.80;56.30
10010;DHT22;5044;48.652;9.250;2023-07-08T04:52:37;19.80;63.00
10010;DHT22;5044;48.652;9.250;2023-07-08T04:55:04;19.90;63.20
10010;DHT22;5044;48.652;9.250;2023-07-08T04:57:31;19.90;65.50
10010;DHT22;5044;48.652;9.250;2023-07-08T04:59:58;20.00;65.40
10010;DHT22;5044;48.652;9.250;2023-07-08T05:02:25;20.00;59.20
10010;DHT22;5044;48.652;9.250;2023-07-08T05:04:52;20.00;57.30
10010;DHT22;5044;48.652;9.250;2023-07-08T05:07:20;20.10;56.40
10010;DHT22;5044;48.652;9.250;2023-07-08T05:09:47;20.00;55.90
10010;DHT22;5044;48.652;9.250;2023-07-08T05:12:14;20.20;56.50
10010;DHT22;5044;48.652;9.250;2023-07-08T05:14:40;20.30;57.30
10010;DHT22;5044;48.652;9.250;2023-07-08T05:17:08;20.40;61.00
10010;DHT22;5044;48.652;9.250;2023-07-08T05:19:35;20.40;57.40
10010;DHT22;5044;48.652;9.250;2023-07-08T05:22:02;20.60;58.30
10010;DHT22;5044;48.652;9.250;2023-07-08T05:24:30;20.70;62.80
10010;DHT22;5044;48.652;9.250;2023-07-08T05:26:57;20.70;57.40
10010;DHT22;5044;48.652;9.250;2023-07-08T05:29:25;20.80;57.80
10010;DHT22;5044;48.652;9.250;2023-07-08T05:31:51;20.80;56.60
10010;DHT22;5044;48.652;9.250;2023-07-08T05:34:18;20.90;59.80
10010;DHT22;5044;48.652;9.250;2023-07-08T05:36:45;20.90;56.80
10010;DHT22;5044;48.652;9.250;2023-07-08T05:39:12;21.00;57.20
10010;DHT22;5044;48.652;9.250;2023-07-08T05:41:40;21.20;56.80
10010;DHT22;5044;48.652;9.250;2023-07-08T05:44:07;21.30;56.90
10010;DHT22;5044;48.652;9.250;2023-07-08T05:46:34;21.30;57.80
10010;DHT22;5044;48.652;9.250;2023-07-08T05:49:02;21.30;57.40
10010;DHT22;5044;48.652;9.250;2023-07-08T05:51:30;21.50;60.60
10010;DHT22;5044;48.652;9.250;2023-07-08T05:53:57;21.70;59.90
10010;DHT22;5044;48.652;9.250;2023-07-08T05:56:24;21.70;59.00
10010;DHT22;5044;48.652;9.250;2023-07-08T05:58:52;21.70;58.60
10010;DHT22;5044;48.652;9.250;2023-07-08T06:01:19;21.80;56.50
10010;DHT22;5044;48.652;9.250;2023-07-08T06:03:46;21.80;58.30
10010;DHT22;5044;48.652;9.250;2023-07-08T06:06:13;21.90;65.30
10010;DHT22;5044;48.652;9.250;2023-07-08T06:08:40;22.00;62.50
10010;DHT22;5044;48.652;9.250;2023-07-08T06:11:07;22.10;61.40
10010;DHT22;5044;48.652;9.250;2023-07-08T06:13:34;22.20;65.70
10010;DHT22;5044;48.652;9.250;2023-07-08T06:16:03;22.10;58.40
10010;DHT22;5044;48.652;9.250;2023-07-08T06:18:29;22.10;56.90
10010;DHT22;5044;48.652;9.250;2023-07-08T06:20:57;22.10;57.50
10010;DHT22;5044;48.652;9.250;2023-07-08T06:23:24;22.10;59.70
10010;DHT22;5044;48.652;9.250;2023-07-08T06:25:52;22.10;58.50
10010;DHT22;5044;48.652;9.250;2023-07-08T06:28:19;22.20;56.30
10010;DHT22;5044;48.652;9.250;2023-07-08T06:30:46;22.10;56.30
10010;DHT22;5044;48.652;9.250;2023-07-08T06:33:15;22.20;56.50
10010;DHT22;5044;48.652;9.250;2023-07-08T06:35:42;22.20;62.10
10010;DHT22;5044;48.652;9.250;2023-07-08T06:38:09;22.30;60.10
10010;DHT22;5044;48.652;9.250;2023-07-08T06:40:36;22.30;58.00
10010;DHT22;5044;48.652;9.250;2023-07-08T06:43:03;22.30;59.30
10010;DHT22;5044;48.652;9.250;2023-07-08T06:45:30;22.30;58.90
10010;DHT22;5044;48.652;9.250;2023-07-08T06:47:57;22.30;59.20
10010;DHT22;5044;48.652;9.250;2023-07-08T06:50:25;22.20;59.70
10010;DHT22;5044;48.652;9.250;2023-07-08T06:52:52;22.20;59.10
10010;DHT22;5044;48.652;9.250;2023-07-08T06:55:19;22.20;61.00
10010;DHT22;5044;48.652;9.250;2023-07-08T06:57:46;22.30;67.40
10010;DHT22;5044;48.652;9.250;2023-07-08T07:00:14;22.40;60.70
10010;DHT22;5044;48.652;9.250;2023-07-08T07:02:41;22.40;67.50
10010;DHT22;5044;48.652;9.250;2023-07-08T07:05:09;22.30;63.40
10010;DHT22;5044;48.652;9.250;2023-07-08T07:07:37;22.30;67.00
10010;DHT22;5044;48.652;9.250;2023-07-08T07:10:04;22.40;72.80
10010;DHT22;5044;48.652;9.250;2023-07-08T07:12:33;22.60;69.80
10010;DHT22;5044;48.652;9.250;2023-07-08T07:15:00;22.60;74.40
10010;DHT22;5044;48.652;9.250;2023-07-08T07:17:27;22.60;66.90
10010;DHT22;5044;48.652;9.250;2023-07-08T07:19:54;22.60;66.40
10010;DHT22;5044;48.652;9.250;2023-07-08T07:22:21;22.70;67.30
10010;DHT22;5044;48.652;9.250;2023-07-08T07:24:50;22.80;66.50
10010;DHT22;5044;48.652;9.250;2023-07-08T07:27:17;22.80;66.70
10010;DHT22;5044;48.652;9.250;2023-07-08T07:29:45;22.90;65.60
10010;DHT22;5044;48.652;9.250;2023-07-08T07:32:13;23.00;65.40
10010;DHT22;5044;48.652;9.250;2023-07-08T07:34:41;23.10;65.10
10010;DHT22;5044;48.652;9.250;2023-07-08T07:37:10;23.10;63.70
10010;DHT22;5044;48.652;9.250;2023-07-08T07:39:38;23.20;65.50
10010;DHT22;5044;48.652;9.250;2023-07-08T07:42:06;23.30;70.10
10010;DHT22;5044;48.652;9.250;2023-07-08T07:44:33;23.40;74.90
10010;DHT22;5044;48.652;9.250;2023-07-08T07:47:02;23.50;68.40
10010;DHT22;5044;48.652;9.250;2023-07-08T07:49:29;23.50;75.30
10010;DHT22;5044;48.652;9.250;2023-07-08T07:51:55;23.40;75.00
10010;DHT22;5044;48.652;9.250;2023-07-08T07:54:22;23.40;67.00
10010;DHT22;5044;48.652;9.250;2023-07-08T07:56:49;23.40;63.70
10010;DHT22;5044;48.652;9.250;2023-07-08T07:59:17;23.50;64.40
10010;DHT22;5044;48.652;9.250;2023-07-08T08:01:44;23.50;64.90
10010;DHT22;5044;48.652;9.250;2023-07-08T08:04:11;23.50;64.90
10010;DHT22;5044;48.652;9.250;2023-07-08T08:06:38;23.60;61.40
10010;DHT22;5044;48.652;9.250;2023-07-08T08:09:06;23.50;61.40
10010;DHT22;5044;48.652;9.250;2023-07-08T08:11:33;23.50;64.50
10010;DHT22;5044;48.652;9.250;2023-07-08T08:14:01;23.40;67.00
10010;DHT22;5044;48.652;9.250;2023-07-08T08:16:30;23.50;74.50
10010;DHT22;5044;48.652;9.250;2023-07-08T08:18:57;23.60;63.20
10010;DHT22;5044;48.652;9.250;2023-07-08T08:21:24;23.70;65.30
10010;DHT22;5044;48.652;9.250;2023-07-08T08:23:51;23.80;66.50
10010;DHT22;5044;48.652;9.250;2023-07-08T08:26:18;24.00;77.10
10010;DHT22;5044;48.652;9.250;2023-07-08T08:28:44;24.10;61.80
10010;DHT22;5044;48.652;9.250;2023-07-08T08:31:11;24.20;62.40
10010;DHT22;5044;48.652;9.250;2023-07-08T08:33:39;24.50;60.90
10010;DHT22;5044;48.652;9.250;2023-07-08T08:36:06;24.60;57.90
10010;DHT22;5044;48.652;9.250;2023-07-08T08:38:33;24.60;58.90
10010;DHT22;5044;48.652;9.250;2023-07-08T08:41:03;24.60;65.70
10010;DHT22;5044;48.652;9.250;2023-07-08T08:43:35;24.60;62.10
10010;DHT22;5044;48.652;9.250;2023-07-08T08:46:08;24.80;60.50
10010;DHT22;5044;48.652;9.250;2023-07-08T08:48:43;25.10;58.60
10010;DHT22;5044;48.652;9.250;2023-07-08T08:51:14;25.20;57.30
10010;DHT22;5044;48.652;9.250;2023-07-08T08:53:42;25.40;56.80
10010;DHT22;5044;48.652;9.250;2023-07-08T08:56:14;25.30;56.90
10010;DHT22;5044;48.652;9.250;2023-07-08T08:58:44;25.50;57.10
10010;DHT22;5044;48.652;9.250;2023-07-08T09:01:14;25.90;62.60
10010;DHT22;5044;48.652;9.250;2023-07-08T09:03:47;25.80;56.40
10010;DHT22;5044;48.652;9.250;2023-07-08T09:06:19;25.80;55.50
10010;DHT22;5044;48.652;9.250;2023-07-08T09:08:46;25.90;57.10
10010;DHT22;5044;48.652;9.250;2023-07-08T09:11:22;26.00;56.20
10010;DHT22;5044;48.652;9.250;2023-07-08T09:13:51;26.00;56.50
10010;DHT22;5044;48.652;9.250;2023-07-08T09:16:26;26.00;56.40
10010;DHT22;5044;48.652;9.250;2023-07-08T09:19:00;26.20;56.30
10010;DHT22;5044;48.652;9.250;2023-07-08T09:21:31;26.20;55.50
10010;DHT22;5044;48.652;9.250;2023-07-08T09:24:03;26.20;58.10
10010;DHT22;5044;48.652;9.250;2023-07-08T09:26:33;26.20;55.60
10010;DHT22;5044;48.652;9.250;2023-07-08T09:29:00;26.20;55.80
10010;DHT22;5044;48.652;9.250;2023-07-08T09:31:28;26.30;55.00
10010;DHT22;5044;48.652;9.250;2023-07-08T09:34:07;26.30;57.00
10010;DHT22;5044;48.652;9.250;2023-07-08T09:36:38;26.40;55.50
10010;DHT22;5044;48.652;9.250;2023-07-08T09:39:10;26.40;55.30
10010;DHT22;5044;48.652;9.250;2023-07-08T09:41:37;26.60;55.80
10010;DHT22;5044;48.652;9.250;2023-07-08T09:44:06;26.80;54.50
10010;DHT22;5044;48.652;9.250;2023-07-08T09:46:37;27.20;54.80
10010;DHT22;5044;48.652;9.250;2023-07-08T09:49:16;27.00;53.50
10010;DHT22;5044;48.652;9.250;2023-07-08T09:51:44;26.80;54.10
10010;DHT22;5044;48.652;9.250;2023-07-08T09:54:11;26.80;54.90
10010;DHT22;5044;48.652;9.250;2023-07-08T09:56:41;26.80;54.70
10010;DHT22;5044;48.652;9.250;2023-07-08T09:59:12;26.70;54.10
10010;DHT22;5044;48.652;9.250;2023-07-08T10:01:40;26.70;54.50
10010;DHT22;5044;48.652;9.250;2023-07-08T10:04:07;26.70;53.80
10010;DHT22;5044;48.652;9.250;2023-07-08T10:06:35;26.70;54.30
10010;DHT22;5044;48.652;9.250;2023-07-08T10:09:04;26.80;54.20
10010;DHT22;5044;48.652;9.250;2023-07-08T10:11:36;27.00;53.50
10010;DHT22;5044;48.652;9.250;2023-07-08T10:14:05;27.30;53.50
10010;DHT22;5044;48.652;9.250;2023-07-08T10:16:35;27.50;53.00
10010;DHT22;5044;48.652;9.250;2023-07-08T10:19:13;27.80;53.10
10010;DHT22;5044;48.652;9.250;2023-07-08T10:21:50;28.10;53.00
10010;DHT22;5044;48.652;9.250;2023-07-08T10:24:34;28.60;52.10
10010;DHT22;5044;48.652;9.250;2023-07-08T10:27:08;28.70;50.50
10010;DHT22;5044;48.652;9.250;2023-07-08T10:29:45;28.70;49.90
10010;DHT22;5044;48.652;9.250;2023-07-08T10:32:28;28.90;50.70
10010;DHT22;5044;48.652;9.250;2023-07-08T10:35:03;29.10;49.70
10010;DHT22;5044;48.652;9.250;2023-07-08T10:37:43;29.20;49.00
10010;DHT22;5044;48.652;9.250;2023-07-08T10:40:28;29.40;48.30
10010;DHT22;5044;48.652;9.250;2023-07-08T10:43:09;29.60;48.60
10010;DHT22;5044;48.652;9.250;2023-07-08T10:45:52;29.70;47.90
10010;DHT22;5044;48.652;9.250;2023-07-08T10:48:36;29.70;47.80
10010;DHT22;5044;48.652;9.250;2023-07-08T10:51:17;29.60;47.30
10010;DHT22;5044;48.652;9.250;2023-07-08T10:54:04;29.60;47.30
10010;DHT22;5044;48.652;9.250;2023-07-08T10:56:37;29.80;47.00
10010;DHT22;5044;48.652;9.250;2023-07-08T10:59:45;29.90;47.20
10010;DHT22;5044;48.652;9.250;2023-07-08T11:02:27;29.80;47.30
10010;DHT22;5044;48.652;9.250;2023-07-08T11:05:09;29.70;47.40
10010;DHT22;5044;48.652;9.250;2023-07-08T11:07:43;29.80;47.70
10010;DHT22;5044;48.652;9.250;2023-07-08T11:10:16;29.80;47.20
10010;DHT22;5044;48.652;9.250;2023-07-08T11:12:46;30.00;47.50
10010;DHT22;5044;48.652;9.250;2023-07-08T11:15:17;30.30;46.70
10010;DHT22;5044;48.652;9.250;2023-07-08T11:17:49;30.60;47.20
10010;DHT22;5044;48.652;9.250;2023-07-08T11:20:20;30.70;46.30
10010;DHT22;5044;48.652;9.250;2023-07-08T11:22:49;30.60;46.00
10010;DHT22;5044;48.652;9.250;2023-07-08T11:25:21;30.80;45.80
10010;DHT22;5044;48.652;9.250;2023-07-08T11:27:54;31.00;45.50
10010;DHT22;5044;48.652;9.250;2023-07-08T11:30:23;31.10;45.00
10010;DHT22;5044;48.652;9.250;2023-07-08T11:32:56;31.20;44.60
10010;DHT22;5044;48.652;9.250;2023-07-08T11:35:33;31.40;45.00
10010;DHT22;5044;48.652;9.250;2023-07-08T11:38:04;31.50;44.60
10010;DHT22;5044;48.652;9.250;2023-07-08T11:40:48;31.80;44.90
10010;DHT22;5044;48.652;9.250;2023-07-08T11:43:17;32.00;44.30
10010;DHT22;5044;48.652;9.250;2023-07-08T11:45:45;32.00;43.70
10010;DHT22;5044;48.652;9.250;2023-07-08T11:48:18;32.10;44.00
10010;DHT22;5044;48.652;9.250;2023-07-08T11:50:46;32.20;43.60
10010;DHT22;5044;48.652;9.250;2023-07-08T11:53:31;32.10;42.10
10010;DHT22;5044;48.652;9.250;2023-07-08T11:56:04;32.10;42.50
10010;DHT22;5044;48.652;9.250;2023-07-08T11:58:50;32.50;43.30
10010;DHT22;5044;48.652;9.250;2023-07-08T12:01:23;32.70;42.60
10010;DHT22;5044;48.652;9.250;2023-07-08T12:03:55;32.60;41.50
10010;DHT22;5044;48.652;9.250;2023-07-08T12:06:43;32.70;42.30
10010;DHT22;5044;48.652;9.250;2023-07-08T12:09:15;32.50;41.00
10010;DHT22;5044;48.652;9.250;2023-07-08T12:11:46;32.30;40.40
10010;DHT22;5044;48.652;9.250;2023-07-08T12:14:13;32.80;41.70
10010;DHT22;5044;48.652;9.250;2023-07-08T12:16:41;33.10;42.90
10010;DHT22;5044;48.652;9.250;2023-07-08T12:19:12;33.30;42.40
10010;DHT22;5044;48.652;9.250;2023-07-08T12:21:42;33.00;41.70
10010;DHT22;5044;48.652;9.250;2023-07-08T12:24:12;33.30;42.00
10010;DHT22;5044;48.652;9.250;2023-07-08T12:26:40;33.50;41.80
10010;DHT22;5044;48.652;9.250;2023-07-08T12:29:10;33.60;41.40
10010;DHT22;5044;48.652;9.250;2023-07-08T12:31:38;33.50;40.80
10010;DHT22;5044;48.652;9.250;2023-07-08T12:34:11;33.60;41.00
10010;DHT22;5044;48.652;9.250;2023-07-08T12:36:39;33.70;40.70
10010;DHT22;5044;48.652;9.250;2023-07-08T12:39:08;33.60;39.40
10010;DHT22;5044;48.652;9.250;2023-07-08T12:41:37;33.70;40.20
10010;DHT22;5044;48.652;9.250;2023-07-08T12:44:13;33.80;40.50
10010;DHT22;5044;48.652;9.250;2023-07-08T12:46:40;33.60;40.20
10010;DHT22;5044;48.652;9.250;2023-07-08T12:49:08;33.40;39.80
10010;DHT22;5044;48.652;9.250;2023-07-08T12:51:35;33.60;40.50
10010;DHT22;5044;48.652;9.250;2023-07-08T12:54:01;33.80;40.40
10010;DHT22;5044;48.652;9.250;2023-07-08T12:56:28;33.70;39.70
10010;DHT22;5044;48.652;9.250;2023-07-08T12:58:56;34.00;39.90
10010;DHT22;5044;48.652;9.250;2023-07-08T13:01:30;34.10;39.80
10010;DHT22;5044;48.652;9.250;2023-07-08T13:04:01;34.20;39.50
10010;DHT22;5044;48.652;9.250;2023-07-08T13:06:30;34.00;39.20
10010;DHT22;5044;48.652;9.250;2023-07-08T13:09:02;34.00;39.20
10010;DHT22;5044;48.652;9.250;2023-07-08T13:11:31;34.00;39.30
10010;DHT22;5044;48.652;9.250;2023-07-08T13:14:01;33.90;38.80
10010;DHT22;5044;48.652;9.250;2023-07-08T13:16:34;34.20;39.70
10010;DHT22;5044;48.652;9.250;2023-07-08T13:19:02;34.00;39.30
10010;DHT22;5044;48.652;9.250;2023-07-08T13:21:30;34.10;39.10
10010;DHT22;5044;48.652;9.250;2023-07-08T13:23:58;34.20;40.00
10010;DHT22;5044;48.652;9.250;2023-07-08T13:26:29;34.30;39.60
10010;DHT22;5044;48.652;9.250;2023-07-08T13:29:00;34.00;38.80
10010;DHT22;5044;48.652;9.250;2023-07-08T13:31:34;34.10;39.50
10010;DHT22;5044;48.652;9.250;2023-07-08T13:34:07;34.10;39.40
10010;DHT22;5044;48.652;9.250;2023-07-08T13:36:36;34.20;39.80
10010;DHT22;5044;48.652;9.250;2023-07-08T13:39:06;34.30;39.40
10010;DHT22;5044;48.652;9.250;2023-07-08T13:41:34;34.50;39.80
10010;DHT22;5044;48.652;9.250;2023-07-08T13:44:06;34.50;39.40
10010;DHT22;5044;48.652;9.250;2023-07-08T13:46:37;34.50;39.00
10010;DHT22;5044;48.652;9.250;2023-07-08T13:49:12;34.40;38.90
10010;DHT22;5044;48.652;9.250;2023-07-08T13:51:40;34.60;39.00
10010;DHT22;5044;48.652;9.250;2023-07-08T13:54:14;34.00;38.20
10010;DHT22;5044;48.652;9.250;2023-07-08T13:56:42;33.80;38.10
10010;DHT22;5044;48.652;9.250;2023-07-08T13:59:12;34.20;39.50
10010;DHT22;5044;48.652;9.250;2023-07-08T14:01:46;34.00;38.40
10010;DHT22;5044;48.652;9.250;2023-07-08T14:04:14;34.10;39.30
10010;DHT22;5044;48.652;9.250;2023-07-08T14:06:42;34.40;39.90
10010;DHT22;5044;48.652;9.250;2023-07-08T14:09:13;34.60;39.80
10010;DHT22;5044;48.652;9.250;2023-07-08T14:11:41;35.00;40.20
10010;DHT22;5044;48.652;9.250;2023-07-08T14:14:09;35.10;39.70
10010;DHT22;5044;48.652;9.250;2023-07-08T14:16:38;34.60;39.20
10010;DHT22;5044;48.652;9.250;2023-07-08T14:19:11;34.60;39.40
10010;DHT22;5044;48.652;9.250;2023-07-08T14:21:39;34.50;39.10
10010;DHT22;5044;48.652;9.250;2023-07-08T14:24:12;34.50;39.10
10010;DHT22;5044;48.652;9.250;2023-07-08T14:26:42;34.70;39.20
10010;DHT22;5044;48.652;9.250;2023-07-08T14:29:09;34.80;39.20
10010;DHT22;5044;48.652;9.250;2023-07-08T14:31:37;34.40;38.70
10010;DHT22;5044;48.652;9.250;2023-07-08T14:34:06;34.20;39.50
10010;DHT22;5044;48.652;9.250;2023-07-08T14:36:35;34.10;39.60
10010;DHT22;5044;48.652;9.250;2023-07-08T14:39:09;34.30;39.60
10010;DHT22;5044;48.652;9.250;2023-07-08T14:41:37;34.20;40.10
10010;DHT22;5044;48.652;9.250;2023-07-08T14:44:17;33.80;39.50
10010;DHT22;5044;48.652;9.250;2023-07-08T14:46:45;34.10;39.60
10010;DHT22;5044;48.652;9.250;2023-07-08T14:49:15;33.80;40.10
10010;DHT22;5044;48.652;9.250;2023-07-08T14:51:46;33.50;40.10
10010;DHT22;5044;48.652;9.250;2023-07-08T14:54:13;33.80;39.60
10010;DHT22;5044;48.652;9.250;2023-07-08T14:56:44;34.10;40.00
10010;DHT22;5044;48.652;9.250;2023-07-08T14:59:16;34.30;39.90
10010;DHT22;5044;48.652;9.250;2023-07-08T15:01:45;34.40;39.10
10010;DHT22;5044;48.652;9.250;2023-07-08T15:04:14;34.30;37.80
10010;DHT22;5044;48.652;9.250;2023-07-08T15:06:44;34.40;38.20
10010;DHT22;5044;48.652;9.250;2023-07-08T15:09:12;34.30;38.00
10010;DHT22;5044;48.652;9.250;2023-07-08T15:11:40;34.50;38.70
10010;DHT22;5044;48.652;9.250;2023-07-08T15:14:16;34.10;38.70
10010;DHT22;5044;48.652;9.250;2023-07-08T15:16:45;33.90;38.40
10010;DHT22;5044;48.652;9.250;2023-07-08T15:19:13;34.00;39.40
10010;DHT22;5044;48.652;9.250;2023-07-08T15:21:40;33.90;39.50
10010;DHT22;5044;48.652;9.250;2023-07-08T15:24:12;33.50;39.70
10010;DHT22;5044;48.652;9.250;2023-07-08T15:26:42;34.00;39.90
10010;DHT22;5044;48.652;9.250;2023-07-08T15:29:13;34.20;40.20
10010;DHT22;5044;48.652;9.250;2023-07-08T15:31:41;34.30;40.20
10010;DHT22;5044;48.652;9.250;2023-07-08T15:34:13;33.90;38.30
10010;DHT22;5044;48.652;9.250;2023-07-08T15:36:40;33.50;39.60
10010;DHT22;5044;48.652;9.250;2023-07-08T15:39:07;33.50;41.00
10010;DHT22;5044;48.652;9.250;2023-07-08T15:41:37;33.40;41.00
10010;DHT22;5044;48.652;9.250;2023-07-08T15:44:04;33.40;41.20
10010;DHT22;5044;48.652;9.250;2023-07-08T15:46:34;33.10;41.20
10010;DHT22;5044;48.652;9.250;2023-07-08T15:49:01;33.00;41.20
10010;DHT22;5044;48.652;9.250;2023-07-08T15:51:36;33.10;40.70
10010;DHT22;5044;48.652;9.250;2023-07-08T15:54:03;33.40;40.50
10010;DHT22;5044;48.652;9.250;2023-07-08T15:56:32;33.50;40.70
10010;DHT22;5044;48.652;9.250;2023-07-08T15:59:02;33.30;39.80